sensor_id;sensor_type;location;lat;lon;timestamp;pressure;altitude;pressure_sealevel;temperature;humidity
12626;BME280;6378;42.684;23.372;2023-11-18T00:00:19;94419.72;;;7.37;100.00
12626;BME280;6378;42.684;23.372;2023-11-18T00:02:44;94399.75;;;7.35;100.00
12626;BME280;6378;42.684;23.372;2023-11-18T00:05:13;94402.56;;;7.26;100.00
12626;BME280;6378;42.684;23.372;2023-11-18T00:07:39;94395.66;;;7.25;100.00
12626;BME280;6378;42.684;23.372;2023-11-18T00:10:05;94403.50;;;7.18;100.00
12626;BME280;6378;42.684;23.372;2023-11-18T00:12:32;94375.72;;;7.11;100.00
12626;BME280;6378;42.684;23.372;2023-11-18T00:15:00;94383.38;;;7.24;100.00
12626;BME280;6378;42.684;23.372;2023-11-18T00:17:31;94382.31;;;7.01;100.00
12626;BME280;6378;42.684;23.372;2023-11-18T00:19:57;94404.19;;;7.03;100.00
12626;BME280;6378;42.684;23.372;2023-11-18T00:22:23;94434.25;;;7.12;100.00
12626;BME280;6378;42.684;23.372;2023-11-18T00:24:48;94436.59;;;7.14;100.00
12626;BME280;6378;42.684;23.372;2023-11-18T00:27:14;94428.91;;;7.00;100.00
12626;BME280;6378;42.684;23.372;2023-11-18T00:29:40;94425.38;;;6.96;100.00
12626;BME280;6378;42.684;23.372;2023-11-18T00:32:05;94406.63;;;6.96;100.00
12626;BME280;6378;42.684;23.372;2023-11-18T00:34:35;94395.28;;;6.87;100.00
12626;BME280;6378;42.684;23.372;2023-11-18T00:37:00;94383.72;;;6.71;100.00
12626;BME280;6378;42.684;23.372;2023-11-18T00:39:26;94413.56;;;6.85;100.00
12626;BME280;6378;42.684;23.372;2023-11-18T00:41:52;94391.31;;;6.69;100.00
12626;BME280;6378;42.684;23.372;2023-11-18T00:44:18;94405.88;;;6.83;100.00
12626;BME280;6378;42.684;23.372;2023-11-18T00:46:43;94404.66;;;6.81;100.00
12626;BME280;6378;42.684;23.372;2023-11-18T00:49:09;94363.91;;;6.47;100.00
12626;BME280;6378;42.684;23.372;2023-11-18T00:51:36;94399.34;;;6.69;100.00
12626;BME280;6378;42.684;23.372;2023-11-18T00:54:03;94387.53;;;6.58;100.00
12626;BME280;6378;42.684;23.372;2023-11-18T00:56:33;94406.91;;;6.79;100.00
12626;BME280;6378;42.684;23.372;2023-11-18T00:59:00;94413.47;;;6.69;100.00
12626;BME280;6378;42.684;23.372;2023-11-18T01:01:28;94396.44;;;6.62;100.00
12626;BME280;6378;42.684;23.372;2023-11-18T01:03:53;94415.94;;;6.62;100.00
12626;BME280;6378;42.684;23.372;2023-11-18T01:06:19;94425.84;;;6.62;100.00
12626;BME280;6378;42.684;23.372;2023-11-18T01:08:45;94409.69;;;6.46;100.00
12626;BME280;6378;42.684;23.372;2023-11-18T01:11:15;94429.28;;;6.62;100.00
12626;BME280;6378;42.684;23.372;2023-11-18T01:13:44;94424.06;;;6.53;100.00
12626;BME280;6378;42.684;23.372;2023-11-18T01:16:10;94425.97;;;6.53;100.00
12626;BME280;6378;42.684;23.372;2023-11-18T01:18:36;94422.97;;;6.55;100.00
12626;BME280;6378;42.684;23.372;2023-11-18T01:21:01;94410.81;;;6.45;100.00
12626;BME280;6378;42.684;23.372;2023-11-18T01:23:27;94428.75;;;6.44;100.00
12626;BME280;6378;42.684;23.372;2023-11-18T01:25:53;94433.50;;;6.51;100.00
12626;BME280;6378;42.684;23.372;2023-11-18T01:28:18;94433.88;;;6.49;100.00
12626;BME280;6378;42.684;23.372;2023-11-18T01:30:44;94434.88;;;6.45;100.00
12626;BME280;6378;42.684;23.372;2023-11-18T01:33:10;94428.19;;;6.39;100.00
12626;BME280;6378;42.684;23.372;2023-11-18T01:35:36;94432.06;;;6.41;100.00
12626;BME280;6378;42.684;23.372;2023-11-18T01:38:01;94430.28;;;6.33;100.00
12626;BME280;6378;42.684;23.372;2023-11-18T01:40:27;94456.38;;;6.48;100.00
12626;BME280;6378;42.684;23.372;2023-11-18T01:42:55;94453.47;;;6.53;100.00
12626;BME280;6378;42.684;23.372;2023-11-18T01:45:21;94430.16;;;6.42;100.00
12626;BME280;6378;42.684;23.372;2023-11-18T01:47:46;94435.75;;;6.37;100.00
12626;BME280;6378;42.684;23.372;2023-11-18T01:50:14;94431.06;;;6.34;100.00
12626;BME280;6378;42.684;23.372;2023-11-18T01:52:40;94410.34;;;6.19;100.00
12626;BME280;6378;42.684;23.372;2023-11-18T01:55:06;94403.44;;;6.05;100.00
12626;BME280;6378;42.684;23.372;2023-11-18T01:57:33;94417.78;;;6.13;100.00
12626;BME280;6378;42.684;23.372;2023-11-18T01:59:59;94434.81;;;6.08;100.00
12626;BME280;6378;42.684;23.372;2023-11-18T02:02:25;94428.94;;;6.15;100.00
12626;BME280;6378;42.684;23.372;2023-11-18T02:04:51;94421.78;;;6.07;100.00
12626;BME280;6378;42.684;23.372;2023-11-18T02:07:17;94418.00;;;5.96;100.00
12626;BME280;6378;42.684;23.372;2023-11-18T02:09:44;94436.00;;;5.99;100.00
12626;BME280;6378;42.684;23.372;2023-11-18T02:14:49;94429.31;;;5.93;100.00
12626;BME280;6378;42.684;23.372;2023-11-18T02:17:18;94416.53;;;5.98;100.00
12626;BME280;6378;42.684;23.372;2023-11-18T02:19:45;94419.16;;;5.86;100.00
12626;BME280;6378;42.684;23.372;2023-11-18T02:22:11;94405.66;;;5.83;100.00
12626;BME280;6378;42.684;23.372;2023-11-18T02:24:38;94423.72;;;5.86;100.00
12626;BME280;6378;42.684;23.372;2023-11-18T02:27:06;94419.38;;;5.81;100.00
12626;BME280;6378;42.684;23.372;2023-11-18T02:29:43;94418.00;;;5.75;100.00
12626;BME280;6378;42.684;23.372;2023-11-18T02:32:27;94418.13;;;5.79;100.00
12626;BME280;6378;42.684;23.372;2023-11-18T02:35:24;94419.09;;;5.74;100.00
12626;BME280;6378;42.684;23.372;2023-11-18T02:37:54;94387.13;;;5.53;100.00
12626;BME280;6378;42.684;23.372;2023-11-18T02:40:39;94407.75;;;5.65;100.00
12626;BME280;6378;42.684;23.372;2023-11-18T02:43:09;94419.84;;;5.62;100.00
12626;BME280;6378;42.684;23.372;2023-11-18T02:45:36;94424.06;;;5.63;100.00
12626;BME280;6378;42.684;23.372;2023-11-18T02:48:03;94407.75;;;5.44;100.00
12626;BME280;6378;42.684;23.372;2023-11-18T02:50:29;94412.91;;;5.49;100.00
12626;BME280;6378;42.684;23.372;2023-11-18T02:52:55;94425.16;;;5.50;100.00
12626;BME280;6378;42.684;23.372;2023-11-18T02:55:21;94440.38;;;5.50;100.00
12626;BME280;6378;42.684;23.372;2023-11-18T02:57:48;94436.84;;;5.58;100.00
12626;BME280;6378;42.684;23.372;2023-11-18T03:00:15;94437.31;;;5.60;100.00
12626;BME280;6378;42.684;23.372;2023-11-18T03:02:47;94446.91;;;5.40;100.00
12626;BME280;6378;42.684;23.372;2023-11-18T03:05:13;94442.34;;;5.41;100.00
12626;BME280;6378;42.684;23.372;2023-11-18T03:07:44;94445.41;;;5.31;100.00
12626;BME280;6378;42.684;23.372;2023-11-18T03:10:12;94453.19;;;5.15;100.00
12626;BME280;6378;42.684;23.372;2023-11-18T03:12:55;94473.75;;;5.14;100.00
12626;BME280;6378;42.684;23.372;2023-11-18T03:15:22;94459.25;;;5.03;100.00
12626;BME280;6378;42.684;23.372;2023-11-18T03:17:49;94478.06;;;5.07;100.00
12626;BME280;6378;42.684;23.372;2023-11-18T03:20:19;94448.38;;;4.88;100.00
12626;BME280;6378;42.684;23.372;2023-11-18T03:22:45;94482.09;;;5.13;100.00
12626;BME280;6378;42.684;23.372;2023-11-18T03:25:12;94475.56;;;5.02;100.00
12626;BME280;6378;42.684;23.372;2023-11-18T03:27:38;94486.00;;;5.15;100.00
12626;BME280;6378;42.684;23.372;2023-11-18T03:30:05;94505.91;;;5.18;100.00
12626;BME280;6378;42.684;23.372;2023-11-18T03:32:31;94484.97;;;5.08;100.00
12626;BME280;6378;42.684;23.372;2023-11-18T03:34:57;94486.25;;;5.02;100.00
12626;BME280;6378;42.684;23.372;2023-11-18T03:37:24;94474.13;;;5.04;100.00
12626;BME280;6378;42.684;23.372;2023-11-18T03:39:51;94489.72;;;4.94;100.00
12626;BME280;6378;42.684;23.372;2023-11-18T03:42:17;94472.81;;;4.90;100.00
12626;BME280;6378;42.684;23.372;2023-11-18T03:44:42;94480.06;;;4.80;100.00
12626;BME280;6378;42.684;23.372;2023-11-18T03:47:08;94491.03;;;4.88;100.00
12626;BME280;6378;42.684;23.372;2023-11-18T03:49:33;94494.94;;;4.90;100.00
12626;BME280;6378;42.684;23.372;2023-11-18T03:51:59;94490.88;;;4.84;100.00
12626;BME280;6378;42.684;23.372;2023-11-18T03:54:24;94483.53;;;4.81;100.00
12626;BME280;6378;42.684;23.372;2023-11-18T03:56:50;94503.41;;;4.92;100.00
12626;BME280;6378;42.684;23.372;2023-11-18T03:59:15;94497.47;;;4.87;100.00
12626;BME280;6378;42.684;23.372;2023-11-18T04:01:41;94462.38;;;4.76;100.00
12626;BME280;6378;42.684;23.372;2023-11-18T04:04:06;94503.72;;;4.91;100.00
12626;BME280;6378;42.684;23.372;2023-11-18T04:06:32;94500.69;;;5.01;100.00
12626;BME280;6378;42.684;23.372;2023-11-18T04:08:57;94510.28;;;4.93;100.00
12626;BME280;6378;42.684;23.372;2023-11-18T04:11:23;94493.81;;;4.91;100.00
12626;BME280;6378;42.684;23.372;2023-11-18T04:13:49;94491.88;;;5.00;100.00
12626;BME280;6378;42.684;23.372;2023-11-18T04:16:15;94499.47;;;4.90;100.00
12626;BME280;6378;42.684;23.372;2023-11-18T04:18:42;94475.34;;;4.57;100.00
12626;BME280;6378;42.684;23.372;2023-11-18T04:21:08;94500.53;;;4.68;100.00
12626;BME280;6378;42.684;23.372;2023-11-18T04:23:37;94424.81;;;4.31;100.00
12626;BME280;6378;42.684;23.372;2023-11-18T04:26:03;94518.47;;;4.88;100.00
12626;BME280;6378;42.684;23.372;2023-11-18T04:28:29;94507.56;;;4.72;100.00
12626;BME280;6378;42.684;23.372;2023-11-18T04:30:55;94511.94;;;4.77;100.00
12626;BME280;6378;42.684;23.372;2023-11-18T04:33:20;94516.38;;;4.64;100.00
12626;BME280;6378;42.684;23.372;2023-11-18T04:35:46;94517.44;;;4.72;100.00
12626;BME280;6378;42.684;23.372;2023-11-18T04:38:12;94514.81;;;4.63;100.00
12626;BME280;6378;42.684;23.372;2023-11-18T04:40:37;94514.66;;;4.60;100.00
12626;BME280;6378;42.684;23.372;2023-11-18T04:43:04;94493.13;;;4.44;100.00
12626;BME280;6378;42.684;23.372;2023-11-18T04:45:30;94527.97;;;4.68;100.00
12626;BME280;6378;42.684;23.372;2023-11-18T04:47:56;94514.81;;;4.63;100.00
12626;BME280;6378;42.684;23.372;2023-11-18T04:50:22;94523.63;;;4.55;100.00
12626;BME280;6378;42.684;23.372;2023-11-18T04:52:47;94505.91;;;4.59;100.00
12626;BME280;6378;42.684;23.372;2023-11-18T04:55:13;94495.25;;;4.59;100.00
12626;BME280;6378;42.684;23.372;2023-11-18T04:57:39;94514.34;;;4.61;100.00
12626;BME280;6378;42.684;23.372;2023-11-18T05:00:05;94507.63;;;4.64;100.00
12626;BME280;6378;42.684;23.372;2023-11-18T05:02:39;94499.38;;;4.48;100.00
12626;BME280;6378;42.684;23.372;2023-11-18T05:05:06;94520.34;;;4.58;100.00
12626;BME280;6378;42.684;23.372;2023-11-18T05:07:32;94519.84;;;4.56;100.00
12626;BME280;6378;42.684;23.372;2023-11-18T05:09:58;94510.03;;;4.48;100.00
12626;BME280;6378;42.684;23.372;2023-11-18T05:12:23;94509.53;;;4.46;100.00
12626;BME280;6378;42.684;23.372;2023-11-18T05:14:49;94509.88;;;4.45;100.00
12626;BME280;6378;42.684;23.372;2023-11-18T05:17:15;94511.94;;;4.39;100.00
12626;BME280;6378;42.684;23.372;2023-11-18T05:19:41;94513.81;;;4.39;100.00
12626;BME280;6378;42.684;23.372;2023-11-18T05:22:08;94515.03;;;4.41;100.00
12626;BME280;6378;42.684;23.372;2023-11-18T05:24:33;94524.78;;;4.37;100.00
12626;BME280;6378;42.684;23.372;2023-11-18T05:26:59;94489.88;;;4.30;100.00
12626;BME280;6378;42.684;23.372;2023-11-18T05:29:27;94508.16;;;4.40;100.00
12626;BME280;6378;42.684;23.372;2023-11-18T05:31:53;94492.81;;;4.37;100.00
12626;BME280;6378;42.684;23.372;2023-11-18T05:34:20;94520.72;;;4.77;100.00
12626;BME280;6378;42.684;23.372;2023-11-18T05:36:46;94445.97;;;4.36;100.00
12626;BME280;6378;42.684;23.372;2023-11-18T05:39:12;94502.47;;;4.50;100.00
12626;BME280;6378;42.684;23.372;2023-11-18T05:41:40;94485.13;;;4.44;100.00
12626;BME280;6378;42.684;23.372;2023-11-18T05:44:06;94474.19;;;4.28;100.00
12626;BME280;6378;42.684;23.372;2023-11-18T05:46:34;94481.38;;;4.36;100.00
12626;BME280;6378;42.684;23.372;2023-11-18T05:49:03;94484.97;;;4.41;100.00
12626;BME280;6378;42.684;23.372;2023-11-18T05:51:33;94477.47;;;4.34;100.00
12626;BME280;6378;42.684;23.372;2023-11-18T05:53:58;94493.16;;;4.27;100.00
12626;BME280;6378;42.684;23.372;2023-11-18T05:56:23;94483.78;;;4.21;100.00
12626;BME280;6378;42.684;23.372;2023-11-18T05:58:51;94462.19;;;4.14;100.00
12626;BME280;6378;42.684;23.372;2023-11-18T06:01:18;94448.88;;;4.14;100.00
12626;BME280;6378;42.684;23.372;2023-11-18T06:03:44;94475.00;;;4.20;100.00
12626;BME280;6378;42.684;23.372;2023-11-18T06:06:12;94488.31;;;4.29;100.00
12626;BME280;6378;42.684;23.372;2023-11-18T06:08:39;94471.03;;;4.35;100.00
12626;BME280;6378;42.684;23.372;2023-11-18T06:11:07;94488.91;;;4.34;100.00
12626;BME280;6378;42.684;23.372;2023-11-18T06:13:47;94500.84;;;4.28;100.00
12626;BME280;6378;42.684;23.372;2023-11-18T06:16:14;94490.66;;;4.22;100.00
12626;BME280;6378;42.684;23.372;2023-11-18T06:18:44;94502.88;;;4.23;100.00
12626;BME280;6378;42.684;23.372;2023-11-18T06:21:17;94500.09;;;4.11;100.00
12626;BME280;6378;42.684;23.372;2023-11-18T06:23:44;94492.75;;;4.08;100.00
12626;BME280;6378;42.684;23.372;2023-11-18T06:26:11;94511.22;;;4.13;100.00
12626;BME280;6378;42.684;23.372;2023-11-18T06:28:38;94522.47;;;4.18;100.00
12626;BME280;6378;42.684;23.372;2023-11-18T06:31:04;94512.44;;;4.24;100.00
12626;BME280;6378;42.684;23.372;2023-11-18T06:33:36;94524.06;;;4.19;100.00
12626;BME280;6378;42.684;23.372;2023-11-18T06:36:03;94514.03;;;4.25;100.00
12626;BME280;6378;42.684;23.372;2023-11-18T06:38:29;94521.22;;;4.24;100.00
12626;BME280;6378;42.684;23.372;2023-11-18T06:40:55;94531.72;;;4.21;100.00
12626;BME280;6378;42.684;23.372;2023-11-18T06:43:21;94504.00;;;4.13;100.00
12626;BME280;6378;42.684;23.372;2023-11-18T06:45:47;94510.09;;;4.22;100.00
12626;BME280;6378;42.684;23.372;2023-11-18T06:48:14;94499.41;;;4.31;100.00
12626;BME280;6378;42.684;23.372;2023-11-18T06:50:40;94506.78;;;4.34;100.00
12626;BME280;6378;42.684;23.372;2023-11-18T06:53:09;94505.19;;;4.42;100.00
12626;BME280;6378;42.684;23.372;2023-11-18T06:55:36;94524.91;;;4.49;100.00
12626;BME280;6378;42.684;23.372;2023-11-18T06:58:01;94522.56;;;4.48;100.00
12626;BME280;6378;42.684;23.372;2023-11-18T07:00:27;94532.75;;;4.46;100.00
12626;BME280;6378;42.684;23.372;2023-11-18T07:02:54;94510.06;;;4.40;100.00
12626;BME280;6378;42.684;23.372;2023-11-18T07:05:20;94526.72;;;4.19;100.00
12626;BME280;6378;42.684;23.372;2023-11-18T07:07:52;94510.44;;;4.12;100.00
12626;BME280;6378;42.684;23.372;2023-11-18T07:10:17;94544.06;;;4.34;100.00
12626;BME280;6378;42.684;23.372;2023-11-18T07:12:46;94545.78;;;4.39;100.00
12626;BME280;6378;42.684;23.372;2023-11-18T07:15:14;94531.72;;;4.12;100.00
12626;BME280;6378;42.684;23.372;2023-11-18T07:17:39;94537.81;;;4.21;100.00
12626;BME280;6378;42.684;23.372;2023-11-18T07:20:06;94563.66;;;4.38;100.00
12626;BME280;6378;42.684;23.372;2023-11-18T07:22:31;94557.53;;;4.38;100.00
12626;BME280;6378;42.684;23.372;2023-11-18T07:24:57;94553.47;;;4.31;100.00
12626;BME280;6378;42.684;23.372;2023-11-18T07:27:22;94547.22;;;4.27;100.00
12626;BME280;6378;42.684;23.372;2023-11-18T07:29:48;94524.53;;;4.13;100.00
12626;BME280;6378;42.684;23.372;2023-11-18T07:32:13;94532.03;;;4.28;100.00
12626;BME280;6378;42.684;23.372;2023-11-18T07:34:39;94510.56;;;4.24;100.00
12626;BME280;6378;42.684;23.372;2023-11-18T07:37:06;94532.16;;;4.31;100.00
12626;BME280;6378;42.684;23.372;2023-11-18T07:39:33;94522.16;;;4.28;100.00
12626;BME280;6378;42.684;23.372;2023-11-18T07:42:14;94524.31;;;4.44;100.00
12626;BME280;6378;42.684;23.372;2023-11-18T07:44:43;94544.88;;;4.34;100.00
12626;BME280;6378;42.684;23.372;2023-11-18T07:47:08;94538.59;;;4.30;100.00
12626;BME280;6378;42.684;23.372;2023-11-18T07:49:35;94533.25;;;4.30;100.00
12626;BME280;6378;42.684;23.372;2023-11-18T07:52:03;94544.38;;;4.32;100.00
12626;BME280;6378;42.684;23.372;2023-11-18T07:54:29;94540.81;;;4.20;100.00
12626;BME280;6378;42.684;23.372;2023-11-18T07:56:55;94531.72;;;4.21;100.00
12626;BME280;6378;42.684;23.372;2023-11-18T07:59:20;94532.50;;;4.30;100.00
12626;BME280;6378;42.684;23.372;2023-11-18T08:01:47;94555.53;;;4.34;100.00
12626;BME280;6378;42.684;23.372;2023-11-18T08:04:12;94550.03;;;4.40;100.00
12626;BME280;6378;42.684;23.372;2023-11-18T08:06:42;94547.81;;;4.42;100.00
12626;BME280;6378;42.684;23.372;2023-11-18T08:09:09;94544.88;;;4.26;100.00
12626;BME280;6378;42.684;23.372;2023-11-18T08:11:38;94560.34;;;4.41;100.00
12626;BME280;6378;42.684;23.372;2023-11-18T08:14:09;94582.31;;;4.38;100.00
12626;BME280;6378;42.684;23.372;2023-11-18T08:16:34;94558.81;;;4.31;100.00
12626;BME280;6378;42.684;23.372;2023-11-18T08:19:01;94549.84;;;4.36;100.00
12626;BME280;6378;42.684;23.372;2023-11-18T08:21:31;94560.81;;;4.43;100.00
12626;BME280;6378;42.684;23.372;2023-11-18T08:23:56;94544.69;;;4.40;100.00
12626;BME280;6378;42.684;23.372;2023-11-18T08:26:24;94540.75;;;4.46;100.00
12626;BME280;6378;42.684;23.372;2023-11-18T08:28:49;94572.25;;;4.35;100.00
12626;BME280;6378;42.684;23.372;2023-11-18T08:31:14;94536.75;;;4.69;100.00
12626;BME280;6378;42.684;23.372;2023-11-18T08:33:43;94604.22;;;6.40;100.00
12626;BME280;6378;42.684;23.372;2023-11-18T08:36:09;94559.22;;;6.30;100.00
12626;BME280;6378;42.684;23.372;2023-11-18T08:38:35;94579.75;;;7.20;100.00
12626;BME280;6378;42.684;23.372;2023-11-18T08:41:01;94528.69;;;5.78;100.00
12626;BME280;6378;42.684;23.372;2023-11-18T08:43:26;94539.50;;;5.40;100.00
12626;BME280;6378;42.684;23.372;2023-11-18T08:45:54;94545.97;;;5.09;100.00
12626;BME280;6378;42.684;23.372;2023-11-18T08:48:20;94541.50;;;4.93;100.00
12626;BME280;6378;42.684;23.372;2023-11-18T08:50:45;94568.84;;;4.81;100.00
12626;BME280;6378;42.684;23.372;2023-11-18T08:53:12;94538.34;;;4.61;100.00
12626;BME280;6378;42.684;23.372;2023-11-18T08:55:37;94545.31;;;4.36;100.00
12626;BME280;6378;42.684;23.372;2023-11-18T08:58:16;94559.34;;;4.63;100.00
12626;BME280;6378;42.684;23.372;2023-11-18T09:00:52;94564.53;;;4.59;100.00
12626;BME280;6378;42.684;23.372;2023-11-18T09:03:24;94564.72;;;4.54;100.00
12626;BME280;6378;42.684;23.372;2023-11-18T09:05:55;94566.88;;;4.61;100.00
12626;BME280;6378;42.684;23.372;2023-11-18T09:10:55;94573.28;;;4.60;100.00
12626;BME280;6378;42.684;23.372;2023-11-18T09:13:22;94548.91;;;4.49;100.00
12626;BME280;6378;42.684;23.372;2023-11-18T09:15:48;94557.94;;;4.57;100.00
12626;BME280;6378;42.684;23.372;2023-11-18T09:18:16;94552.28;;;4.67;100.00
12626;BME280;6378;42.684;23.372;2023-11-18T09:20:43;94571.88;;;4.62;100.00
12626;BME280;6378;42.684;23.372;2023-11-18T09:23:09;94525.66;;;4.50;100.00
12626;BME280;6378;42.684;23.372;2023-11-18T09:25:34;94559.22;;;4.59;100.00
12626;BME280;6378;42.684;23.372;2023-11-18T09:28:01;94550.09;;;4.60;100.00
12626;BME280;6378;42.684;23.372;2023-11-18T09:30:28;94546.88;;;4.38;100.00
12626;BME280;6378;42.684;23.372;2023-11-18T09:32:54;94442.34;;;3.94;100.00
12626;BME280;6378;42.684;23.372;2023-11-18T09:35:20;94539.50;;;4.43;100.00
12626;BME280;6378;42.684;23.372;2023-11-18T09:37:46;94541.06;;;4.35;100.00
12626;BME280;6378;42.684;23.372;2023-11-18T09:40:16;94485.47;;;4.34;100.00
12626;BME280;6378;42.684;23.372;2023-11-18T09:42:42;94519.28;;;4.42;100.00
12626;BME280;6378;42.684;23.372;2023-11-18T09:45:09;94487.38;;;4.25;100.00
12626;BME280;6378;42.684;23.372;2023-11-18T09:47:45;94545.41;;;4.57;100.00
12626;BME280;6378;42.684;23.372;2023-11-18T09:50:17;94514.84;;;4.55;100.00
12626;BME280;6378;42.684;23.372;2023-11-18T09:52:48;94516.56;;;4.59;100.00
12626;BME280;6378;42.684;23.372;2023-11-18T09:55:50;94520.94;;;4.55;100.00
12626;BME280;6378;42.684;23.372;2023-11-18T09:58:17;94535.28;;;4.42;100.00
12626;BME280;6378;42.684;23.372;2023-11-18T10:00:46;94539.38;;;4.40;100.00
12626;BME280;6378;42.684;23.372;2023-11-18T10:03:16;94534.31;;;4.47;100.00
12626;BME280;6378;42.684;23.372;2023-11-18T10:05:42;94539.16;;;4.53;100.00
12626;BME280;6378;42.684;23.372;2023-11-18T10:08:08;94529.00;;;4.38;100.00
12626;BME280;6378;42.684;23.372;2023-11-18T10:10:34;94524.31;;;4.35;100.00
12626;BME280;6378;42.684;23.372;2023-11-18T10:13:03;94503.81;;;4.27;100.00
12626;BME280;6378;42.684;23.372;2023-11-18T10:15:34;94537.59;;;4.52;100.00
12626;BME280;6378;42.684;23.372;2023-11-18T10:18:02;94534.31;;;4.47;100.00
12626;BME280;6378;42.684;23.372;2023-11-18T10:20:48;94554.63;;;4.60;100.00
12626;BME280;6378;42.684;23.372;2023-11-18T10:23:20;94553.59;;;4.44;100.00
12626;BME280;6378;42.684;23.372;2023-11-18T10:25:49;94560.31;;;4.50;100.00
12626;BME280;6378;42.684;23.372;2023-11-18T10:28:25;94562.34;;;4.53;100.00
12626;BME280;6378;42.684;23.372;2023-11-18T10:30:53;94599.97;;;4.51;100.00
12626;BME280;6378;42.684;23.372;2023-11-18T10:33:19;94552.47;;;4.53;100.00
12626;BME280;6378;42.684;23.372;2023-11-18T10:35:52;94545.28;;;4.45;100.00
12626;BME280;6378;42.684;23.372;2023-11-18T10:38:21;94531.78;;;4.50;100.00
12626;BME280;6378;42.684;23.372;2023-11-18T10:40:55;94533.50;;;4.55;100.00
12626;BME280;6378;42.684;23.372;2023-11-18T10:43:21;94531.25;;;4.65;100.00
12626;BME280;6378;42.684;23.372;2023-11-18T10:45:52;94536.94;;;4.64;100.00
12626;BME280;6378;42.684;23.372;2023-11-18T10:48:29;94478.84;;;4.49;100.00
12626;BME280;6378;42.684;23.372;2023-11-18T10:50:55;94482.59;;;4.48;100.00
12626;BME280;6378;42.684;23.372;2023-11-18T10:53:23;94523.88;;;4.71;100.00
12626;BME280;6378;42.684;23.372;2023-11-18T10:55:51;94525.50;;;4.63;100.00
12626;BME280;6378;42.684;23.372;2023-11-18T10:58:16;94518.16;;;4.52;100.00
12626;BME280;6378;42.684;23.372;2023-11-18T11:01:01;94532.84;;;4.66;100.00
12626;BME280;6378;42.684;23.372;2023-11-18T11:03:26;94523.97;;;4.54;100.00
12626;BME280;6378;42.684;23.372;2023-11-18T11:05:58;94516.09;;;4.57;100.00
12626;BME280;6378;42.684;23.372;2023-11-18T11:08:26;94531.91;;;4.62;100.00
12626;BME280;6378;42.684;23.372;2023-11-18T11:10:53;94521.28;;;4.54;100.00
12626;BME280;6378;42.684;23.372;2023-11-18T11:13:19;94518.81;;;4.40;100.00
12626;BME280;6378;42.684;23.372;2023-11-18T11:15:47;94522.59;;;4.39;100.00
12626;BME280;6378;42.684;23.372;2023-11-18T11:18:21;94538.09;;;4.37;100.00
12626;BME280;6378;42.684;23.372;2023-11-18T11:20:59;94507.59;;;4.17;100.00
12626;BME280;6378;42.684;23.372;2023-11-18T11:28:52;94535.16;;;4.30;100.00
12626;BME280;6378;42.684;23.372;2023-11-18T11:31:31;94527.00;;;4.26;100.00
12626;BME280;6378;42.684;23.372;2023-11-18T11:34:02;94528.53;;;4.36;100.00
12626;BME280;6378;42.684;23.372;2023-11-18T11:36:42;94501.72;;;4.41;100.00
12626;BME280;6378;42.684;23.372;2023-11-18T11:39:08;94528.34;;;4.50;100.00
12626;BME280;6378;42.684;23.372;2023-11-18T11:41:50;94516.28;;;4.52;100.00
12626;BME280;6378;42.684;23.372;2023-11-18T11:44:17;94500.75;;;4.54;100.00
12626;BME280;6378;42.684;23.372;2023-11-18T11:46:45;94506.03;;;4.63;100.00
12626;BME280;6378;42.684;23.372;2023-11-18T11:49:20;94540.53;;;4.68;100.00
12626;BME280;6378;42.684;23.372;2023-11-18T11:54:26;94535.84;;;4.56;100.00
12626;BME280;6378;42.684;23.372;2023-11-18T11:56:56;94522.22;;;4.58;100.00
12626;BME280;6378;42.684;23.372;2023-11-18T12:02:21;94501.28;;;4.39;100.00
12626;BME280;6378;42.684;23.372;2023-11-18T12:04:53;94532.56;;;4.59;100.00
12626;BME280;6378;42.684;23.372;2023-11-18T12:07:21;94553.16;;;4.79;100.00
12626;BME280;6378;42.684;23.372;2023-11-18T12:09:49;94518.91;;;4.61;100.00
12626;BME280;6378;42.684;23.372;2023-11-18T12:12:20;94535.50;;;4.66;100.00
12626;BME280;6378;42.684;23.372;2023-11-18T12:14:52;94546.78;;;4.72;100.00
12626;BME280;6378;42.684;23.372;2023-11-18T12:17:18;94502.63;;;4.54;100.00
12626;BME280;6378;42.684;23.372;2023-11-18T12:19:48;94536.38;;;4.79;100.00
12626;BME280;6378;42.684;23.372;2023-11-18T12:22:21;94535.94;;;4.77;100.00
12626;BME280;6378;42.684;23.372;2023-11-18T12:33:05;94529.84;;;4.68;100.00
12626;BME280;6378;42.684;23.372;2023-11-18T12:40:55;94540.63;;;4.80;100.00
12626;BME280;6378;42.684;23.372;2023-11-18T12:43:48;94548.00;;;4.83;100.00
12626;BME280;6378;42.684;23.372;2023-11-18T12:46:49;94515.22;;;4.83;100.00
12626;BME280;6378;42.684;23.372;2023-11-18T12:49:24;94510.53;;;4.71;100.00
12626;BME280;6378;42.684;23.372;2023-11-18T12:51:54;94522.47;;;4.73;100.00
12626;BME280;6378;42.684;23.372;2023-11-18T12:54:26;94528.72;;;4.77;100.00
12626;BME280;6378;42.684;23.372;2023-11-18T12:56:54;94507.44;;;4.69;100.00
12626;BME280;6378;42.684;23.372;2023-11-18T12:59:20;94429.94;;;4.07;100.00
12626;BME280;6378;42.684;23.372;2023-11-18T13:01:52;94522.47;;;4.73;100.00
12626;BME280;6378;42.684;23.372;2023-11-18T13:04:25;94531.22;;;4.83;100.00
12626;BME280;6378;42.684;23.372;2023-11-18T13:06:52;94515.22;;;4.83;100.00
12626;BME280;6378;42.684;23.372;2023-11-18T13:09:21;94535.88;;;4.86;100.00
12626;BME280;6378;42.684;23.372;2023-11-18T13:12:02;94498.06;;;4.63;100.00
12626;BME280;6378;42.684;23.372;2023-11-18T13:14:31;94525.34;;;4.89;100.00
12626;BME280;6378;42.684;23.372;2023-11-18T13:17:01;94486.69;;;4.74;100.00
12626;BME280;6378;42.684;23.372;2023-11-18T13:19:31;94518.09;;;4.69;100.00
12626;BME280;6378;42.684;23.372;2023-11-18T13:22:01;94521.91;;;4.59;100.00
12626;BME280;6378;42.684;23.372;2023-11-18T13:24:29;94527.06;;;4.56;100.00
12626;BME280;6378;42.684;23.372;2023-11-18T13:26:56;94534.13;;;4.52;100.00
12626;BME280;6378;42.684;23.372;2023-11-18T13:29:29;94547.31;;;4.48;100.00
12626;BME280;6378;42.684;23.372;2023-11-18T13:31:54;94542.50;;;4.33;100.00
12626;BME280;6378;42.684;23.372;2023-11-18T13:34:21;94553.00;;;4.38;100.00